createdAt,value
2022-10-18T00:00:20.132Z,99.90
2022-10-18T00:02:47.127Z,99.90
2022-10-18T00:05:14.073Z,99.90
2022-10-18T00:07:41.072Z,99.90
2022-10-18T00:10:08.627Z,99.90
2022-10-18T00:12:36.732Z,99.90
2022-10-18T00:15:06.750Z,99.90
2022-10-18T00:17:38.736Z,99.90
2022-10-18T00:20:07.069Z,99.90
2022-10-18T00:22:39.436Z,99.90
2022-10-18T00:25:07.785Z,99.90
2022-10-18T00:27:35.548Z,99.90
2022-10-18T00:30:02.527Z,99.90
2022-10-18T00:32:29.928Z,99.90
2022-10-18T00:34:57.023Z,99.90
2022-10-18T00:37:23.963Z,99.90
2022-10-18T00:42:30.983Z,99.90
2022-10-18T00:45:04.131Z,99.90
2022-10-18T00:47:31.904Z,99.90
2022-10-18T00:50:02.286Z,99.90
2022-10-18T00:52:37.835Z,99.90
2022-10-18T00:55:06.309Z,99.90
2022-10-18T00:57:34.098Z,99.90
2022-10-18T01:00:01.558Z,99.90
2022-10-18T01:02:29.360Z,99.90
2022-10-18T01:04:56.499Z,99.90
2022-10-18T01:07:41.782Z,99.90
2022-10-18T01:10:39.897Z,99.90
2022-10-18T01:13:35.824Z,99.90
2022-10-18T01:16:19.378Z,99.90
2022-10-18T01:19:17.044Z,99.90
2022-10-18T01:22:16.180Z,99.90
2022-10-18T01:27:55.238Z,99.90
2022-10-18T01:30:43.440Z,99.90
2022-10-18T01:33:29.702Z,99.90
2022-10-18T01:36:05.712Z,99.90
2022-10-18T01:38:34.746Z,99.90
2022-10-18T01:41:03.691Z,99.90
2022-10-18T01:43:32.152Z,99.90
2022-10-18T01:46:01.244Z,99.90
2022-10-18T01:48:29.138Z,99.90
2022-10-18T01:50:56.579Z,99.90
2022-10-18T01:53:29.043Z,99.90
2022-10-18T01:56:06.406Z,99.90
2022-10-18T01:58:46.636Z,99.90
2022-10-18T02:01:33.804Z,99.90
2022-10-18T02:04:26.853Z,99.90
2022-10-18T02:07:03.934Z,99.90
2022-10-18T02:09:40.404Z,99.90
2022-10-18T02:12:12.039Z,99.90
2022-10-18T02:14:40.984Z,99.90
2022-10-18T02:17:11.105Z,99.90
2022-10-18T02:19:45.763Z,99.90
2022-10-18T02:22:14.249Z,99.90
2022-10-18T02:24:54.951Z,99.90
2022-10-18T02:27:22.535Z,99.90
2022-10-18T02:29:50.203Z,99.90
2022-10-18T02:32:41.179Z,99.90
2022-10-18T02:35:12.105Z,99.90
2022-10-18T02:37:40.480Z,99.90
2022-10-18T02:40:10.208Z,99.90
2022-10-18T02:42:44.263Z,99.90
2022-10-18T02:45:11.841Z,99.90
2022-10-18T02:47:38.811Z,99.90
2022-10-18T02:50:06.342Z,99.90
2022-10-18T02:52:33.351Z,99.90
2022-10-18T02:55:01.322Z,99.90
2022-10-18T02:57:28.500Z,99.90
2022-10-18T02:59:55.748Z,99.90
2022-10-18T03:02:22.711Z,99.90
2022-10-18T03:04:49.693Z,99.90
2022-10-18T03:07:17.001Z,99.90
2022-10-18T03:09:43.971Z,99.90
2022-10-18T03:12:11.164Z,99.90
2022-10-18T03:14:38.087Z,99.90
2022-10-18T03:17:05.044Z,99.90
2022-10-18T03:19:31.977Z,99.90
2022-10-18T03:21:58.909Z,99.90
2022-10-18T03:24:25.892Z,99.90
2022-10-18T03:26:52.890Z,99.90
2022-10-18T03:29:19.816Z,99.90
2022-10-18T03:31:46.843Z,99.90
2022-10-18T03:34:13.896Z,99.90
2022-10-18T03:36:41.542Z,99.90
2022-10-18T03:39:08.497Z,99.90
2022-10-18T03:41:35.470Z,99.90
2022-10-18T03:44:02.457Z,99.90
2022-10-18T03:46:29.428Z,99.90
2022-10-18T03:48:56.479Z,99.90
2022-10-18T03:51:23.495Z,99.90
2022-10-18T03:53:50.418Z,99.90
2022-10-18T03:56:17.366Z,99.90
2022-10-18T03:58:44.312Z,99.90
2022-10-18T04:01:11.537Z,99.90
2022-10-18T04:03:38.571Z,99.90
2022-10-18T04:06:05.705Z,99.90
2022-10-18T04:08:32.675Z,99.90
2022-10-18T04:10:59.636Z,99.90
2022-10-18T04:13:26.578Z,99.90
2022-10-18T04:15:53.499Z,99.90
2022-10-18T04:18:20.459Z,99.90
2022-10-18T04:20:47.376Z,99.90
2022-10-18T04:23:14.355Z,99.90
2022-10-18T04:25:41.351Z,99.90
2022-10-18T04:28:08.326Z,99.90
2022-10-18T04:30:35.340Z,99.90
2022-10-18T04:33:02.276Z,99.90
2022-10-18T04:35:29.265Z,99.90
2022-10-18T04:37:56.532Z,99.90
2022-10-18T04:40:23.539Z,99.90
2022-10-18T04:42:50.461Z,99.90
2022-10-18T04:45:17.472Z,99.90
2022-10-18T04:47:44.478Z,99.90
2022-10-18T04:50:11.452Z,99.90
2022-10-18T04:52:38.582Z,99.90
2022-10-18T04:55:06.001Z,99.90
2022-10-18T04:57:33.211Z,99.90
2022-10-18T05:00:00.407Z,99.90
2022-10-18T05:02:27.404Z,99.90
2022-10-18T05:04:54.338Z,99.90
2022-10-18T05:07:21.345Z,99.90
2022-10-18T05:09:48.426Z,99.90
2022-10-18T05:12:15.392Z,99.90
2022-10-18T05:14:42.427Z,99.90
2022-10-18T05:17:09.723Z,99.90
2022-10-18T05:19:36.699Z,99.90
2022-10-18T05:22:03.637Z,99.90
2022-10-18T05:24:30.601Z,99.90
2022-10-18T05:26:57.806Z,99.90
2022-10-18T05:29:25.260Z,99.90
2022-10-18T05:31:52.252Z,99.90
2022-10-18T05:34:20.707Z,99.90
2022-10-18T05:36:49.853Z,99.90
2022-10-18T05:39:16.799Z,99.90
2022-10-18T05:41:43.725Z,99.90
2022-10-18T05:44:10.679Z,99.90
2022-10-18T05:46:37.706Z,99.90
2022-10-18T05:49:04.679Z,99.90
2022-10-18T05:51:31.843Z,99.90
2022-10-18T05:53:58.961Z,99.90
2022-10-18T05:56:25.966Z,99.90
2022-10-18T05:58:53.134Z,99.90
2022-10-18T06:01:20.298Z,99.90
2022-10-18T06:03:47.579Z,99.90
2022-10-18T06:06:15.410Z,99.90
2022-10-18T06:08:43.622Z,99.90
2022-10-18T06:11:13.942Z,99.90
2022-10-18T06:13:45.164Z,99.90
2022-10-18T06:16:13.730Z,99.90
2022-10-18T06:18:41.226Z,99.90
2022-10-18T06:21:08.622Z,99.90
2022-10-18T06:23:36.030Z,99.90
2022-10-18T06:26:06.760Z,99.90
2022-10-18T06:28:38.464Z,99.90
2022-10-18T06:31:06.695Z,99.90
2022-10-18T06:33:35.436Z,99.90
2022-10-18T06:36:07.720Z,99.90
2022-10-18T06:38:35.739Z,99.90
2022-10-18T06:41:03.851Z,99.90
2022-10-18T06:43:31.099Z,99.90
2022-10-18T06:45:58.255Z,99.90
2022-10-18T06:48:25.230Z,99.90
2022-10-18T06:50:57.428Z,99.90
2022-10-18T06:53:29.825Z,99.90
2022-10-18T06:56:04.938Z,99.90
2022-10-18T06:58:32.423Z,99.90
2022-10-18T07:00:59.483Z,99.90
2022-10-18T07:03:27.326Z,99.90
2022-10-18T07:05:54.359Z,99.90
2022-10-18T07:08:21.309Z,99.90
2022-10-18T07:10:53.162Z,99.90
2022-10-18T07:13:31.957Z,99.90
2022-10-18T07:16:10.574Z,99.90
2022-10-18T07:18:41.802Z,99.90
2022-10-18T07:21:11.312Z,99.90
2022-10-18T07:23:40.502Z,99.90
2022-10-18T07:26:42.574Z,99.90
2022-10-18T07:29:11.685Z,99.90
2022-10-18T07:31:39.226Z,99.90
2022-10-18T07:34:07.429Z,99.90
2022-10-18T07:36:34.672Z,99.90
2022-10-18T07:39:01.768Z,99.90
2022-10-18T07:41:29.270Z,99.90
2022-10-18T07:43:56.341Z,99.90
2022-10-18T07:46:23.403Z,99.90
2022-10-18T07:48:50.616Z,99.90
2022-10-18T07:51:19.179Z,99.90
2022-10-18T07:53:46.600Z,99.90
2022-10-18T07:56:21.333Z,99.90
2022-10-18T07:58:53.885Z,99.90
2022-10-18T08:01:22.770Z,99.90
2022-10-18T08:03:50.152Z,99.90
2022-10-18T08:06:19.682Z,99.90
2022-10-18T08:08:47.117Z,99.90
2022-10-18T08:11:32.545Z,99.90
2022-10-18T08:13:59.597Z,98.30
2022-10-18T08:16:28.463Z,98.00
2022-10-18T08:18:57.857Z,94.90
2022-10-18T08:21:25.636Z,94.20
2022-10-18T08:23:53.859Z,93.60
2022-10-18T08:26:22.296Z,92.70
2022-10-18T08:28:58.325Z,92.20
2022-10-18T08:31:31.063Z,90.00
2022-10-18T08:33:58.177Z,90.90
2022-10-18T08:36:25.325Z,88.80
2022-10-18T08:38:52.490Z,87.60
2022-10-18T08:41:37.713Z,84.10
2022-10-18T08:44:25.298Z,88.20
2022-10-18T08:47:07.448Z,88.80
2022-10-18T08:49:56.287Z,90.20
2022-10-18T08:52:46.763Z,92.20
2022-10-18T08:55:39.818Z,94.50
2022-10-18T08:58:30.856Z,94.80
2022-10-18T09:01:15.938Z,96.20
2022-10-18T09:04:07.282Z,96.10
2022-10-18T09:06:58.679Z,94.80
2022-10-18T09:09:34.465Z,96.30
2022-10-18T09:12:44.008Z,97.00
2022-10-18T09:15:16.815Z,98.40
2022-10-18T09:18:08.646Z,98.60
2022-10-18T09:21:24.799Z,97.60
2022-10-18T09:24:47.378Z,94.40
2022-10-18T09:27:19.961Z,93.40
2022-10-18T09:30:05.411Z,92.90
2022-10-18T09:32:39.518Z,94.30
2022-10-18T09:35:52.288Z,93.10
2022-10-18T09:38:23.350Z,89.70
2022-10-18T09:41:02.430Z,85.00
2022-10-18T09:44:01.507Z,77.70
2022-10-18T09:46:33.693Z,77.30
2022-10-18T09:49:06.963Z,76.00
2022-10-18T09:51:42.295Z,75.20
2022-10-18T09:54:35.603Z,77.60
2022-10-18T09:57:27.350Z,77.30
2022-10-18T09:59:54.363Z,78.70
2022-10-18T10:02:23.704Z,80.10
2022-10-18T10:04:52.051Z,78.60
2022-10-18T10:07:24.022Z,74.50
2022-10-18T10:10:03.840Z,70.80
2022-10-18T10:12:33.756Z,74.30
2022-10-18T10:15:20.802Z,75.80
2022-10-18T10:18:19.136Z,73.50
2022-10-18T10:20:52.842Z,73.70
2022-10-18T10:23:28.217Z,72.90
2022-10-18T10:25:58.461Z,72.40
2022-10-18T10:28:49.012Z,70.40
2022-10-18T10:31:29.975Z,67.40
2022-10-18T10:34:27.951Z,69.60
2022-10-18T10:36:55.330Z,69.10
2022-10-18T10:39:24.575Z,69.40
2022-10-18T10:41:54.107Z,68.50
2022-10-18T10:44:24.154Z,69.00
2022-10-18T10:46:52.249Z,66.60
2022-10-18T10:49:42.499Z,67.60
2022-10-18T10:52:28.272Z,66.90
2022-10-18T10:57:47.362Z,65.90
2022-10-18T11:00:52.892Z,67.30
2022-10-18T11:03:29.032Z,69.30
2022-10-18T11:05:57.978Z,67.60
2022-10-18T11:08:29.989Z,67.20
2022-10-18T11:11:23.287Z,63.90
2022-10-18T11:14:13.572Z,62.90
2022-10-18T11:17:22.648Z,64.40
2022-10-18T11:20:09.723Z,64.10
2022-10-18T11:23:02.680Z,64.20
2022-10-18T11:25:45.927Z,63.00
2022-10-18T11:28:37.254Z,62.50
2022-10-18T11:31:31.088Z,59.80
2022-10-18T11:34:16.636Z,59.30
2022-10-18T11:37:26.491Z,57.20
2022-10-18T11:40:03.786Z,59.00
2022-10-18T11:42:53.688Z,60.20
2022-10-18T11:45:49.874Z,58.00
2022-10-18T11:48:38.419Z,56.90
2022-10-18T11:51:16.363Z,59.20
2022-10-18T11:54:27.526Z,65.70
2022-10-18T11:57:09.448Z,68.80
2022-10-18T12:00:00.882Z,70.90
2022-10-18T12:02:49.666Z,70.00
2022-10-18T12:05:25.123Z,64.90
2022-10-18T12:07:58.789Z,62.40
2022-10-18T12:10:44.125Z,61.30
2022-10-18T12:13:44.979Z,58.00
2022-10-18T12:16:12.393Z,60.80
2022-10-18T12:19:11.673Z,66.40
2022-10-18T12:21:39.249Z,71.00
2022-10-18T12:24:16.109Z,70.70
2022-10-18T12:26:43.251Z,64.40
2022-10-18T12:29:33.206Z,64.30
2022-10-18T12:32:07.945Z,64.50
2022-10-18T12:34:58.338Z,65.80
2022-10-18T12:37:35.925Z,73.50
2022-10-18T12:40:18.460Z,78.40
2022-10-18T12:42:49.705Z,80.80
2022-10-18T12:45:27.077Z,83.30
2022-10-18T12:47:55.496Z,83.90
2022-10-18T12:50:42.620Z,83.30
2022-10-18T12:53:12.612Z,80.50
2022-10-18T12:58:26.965Z,75.60
2022-10-18T13:00:57.509Z,72.40
2022-10-18T13:03:51.354Z,74.30
2022-10-18T13:06:18.477Z,70.10
2022-10-18T13:08:48.167Z,68.10
2022-10-18T13:11:33.284Z,67.50
2022-10-18T13:14:20.234Z,67.30
2022-10-18T13:17:04.975Z,67.50
2022-10-18T13:20:24.541Z,70.70
2022-10-18T13:22:57.553Z,75.30
2022-10-18T13:26:02.377Z,76.70
2022-10-18T13:28:53.930Z,79.90
2022-10-18T13:31:44.166Z,80.10
2022-10-18T13:34:35.401Z,81.50
2022-10-18T13:37:20.525Z,78.60
2022-10-18T13:39:47.984Z,77.40
2022-10-18T13:42:14.887Z,79.80
2022-10-18T13:44:44.632Z,79.40
2022-10-18T13:47:31.977Z,76.60
2022-10-18T13:53:28.163Z,73.70
2022-10-18T13:56:24.288Z,72.20
2022-10-18T13:59:13.195Z,76.30
2022-10-18T14:01:56.053Z,81.30
2022-10-18T14:05:16.620Z,84.80
2022-10-18T14:07:47.379Z,88.90
2022-10-18T14:11:03.077Z,89.60
2022-10-18T14:13:44.326Z,83.70
2022-10-18T14:16:24.966Z,82.90
2022-10-18T14:18:57.580Z,83.00
2022-10-18T14:21:32.168Z,81.10
2022-10-18T14:23:59.275Z,79.00
2022-10-18T14:26:29.260Z,79.40
2022-10-18T14:29:07.024Z,79.90
2022-10-18T14:31:35.203Z,79.30
2022-10-18T14:34:03.411Z,81.60
2022-10-18T14:36:39.650Z,84.90
2022-10-18T14:39:15.495Z,88.20
2022-10-18T14:41:56.018Z,90.50
2022-10-18T14:44:28.356Z,91.90
2022-10-18T14:47:15.374Z,92.60
2022-10-18T14:49:46.463Z,94.00
2022-10-18T14:52:18.486Z,94.40
2022-10-18T14:54:46.408Z,95.20
2022-10-18T14:57:39.356Z,95.30
2022-10-18T15:00:09.733Z,95.80
2022-10-18T15:02:38.458Z,96.10
2022-10-18T15:05:19.651Z,96.50
2022-10-18T15:07:47.875Z,97.40
2022-10-18T15:10:17.970Z,98.20
2022-10-18T15:13:08.209Z,99.00
2022-10-18T15:15:34.512Z,99.80
2022-10-18T15:18:02.269Z,99.90
2022-10-18T15:20:34.298Z,99.90
2022-10-18T15:23:32.418Z,99.90
2022-10-18T15:26:09.919Z,99.90
2022-10-18T15:28:52.238Z,99.90
2022-10-18T15:31:34.932Z,99.90
2022-10-18T15:34:12.021Z,99.90
2022-10-18T15:36:39.197Z,99.90
2022-10-18T15:39:16.355Z,99.90
2022-10-18T15:41:56.631Z,99.90
2022-10-18T15:44:32.375Z,99.90
2022-10-18T15:47:20.236Z,99.90
2022-10-18T15:49:52.553Z,99.90
2022-10-18T15:52:33.785Z,99.90
2022-10-18T15:55:29.949Z,99.90
2022-10-18T15:58:23.392Z,99.90
2022-10-18T16:00:51.978Z,99.90
2022-10-18T16:03:22.167Z,99.90
2022-10-18T16:05:51.269Z,99.90
2022-10-18T16:08:25.352Z,99.90
2022-10-18T16:10:52.755Z,99.90
2022-10-18T16:13:20.012Z,99.90
2022-10-18T16:15:47.238Z,99.90
2022-10-18T16:18:17.546Z,99.90
2022-10-18T16:20:45.071Z,99.90
2022-10-18T16:23:24.228Z,99.90
2022-10-18T16:25:51.945Z,99.90
2022-10-18T16:28:24.575Z,99.90
2022-10-18T16:30:59.224Z,99.90
2022-10-18T16:33:26.482Z,99.90
2022-10-18T16:35:53.878Z,99.90
2022-10-18T16:38:34.064Z,99.90
2022-10-18T16:41:06.762Z,99.90
2022-10-18T16:43:35.147Z,99.90
2022-10-18T16:46:03.332Z,99.90
2022-10-18T16:48:30.720Z,99.90
2022-10-18T16:50:58.356Z,99.90
2022-10-18T16:53:26.376Z,99.90
2022-10-18T16:55:59.271Z,99.90
2022-10-18T16:58:28.988Z,99.90
2022-10-18T17:00:56.828Z,99.90
2022-10-18T17:03:24.391Z,99.90
2022-10-18T17:05:51.843Z,99.90
2022-10-18T17:08:24.409Z,99.90
2022-10-18T17:10:53.652Z,99.90
2022-10-18T17:13:21.512Z,99.90
2022-10-18T17:15:49.837Z,99.90
2022-10-18T17:18:20.324Z,99.90
2022-10-18T17:20:47.592Z,99.90
2022-10-18T17:23:14.978Z,99.90
2022-10-18T17:25:57.466Z,99.90
2022-10-18T17:28:31.750Z,99.90
2022-10-18T17:30:58.711Z,99.90
2022-10-18T17:33:25.653Z,99.90
2022-10-18T17:35:52.603Z,99.90
2022-10-18T17:38:19.541Z,99.90
2022-10-18T17:40:46.487Z,99.90
2022-10-18T17:43:13.976Z,99.90
2022-10-18T17:45:48.669Z,99.90
2022-10-18T17:48:15.685Z,99.90
2022-10-18T17:50:42.967Z,99.90
2022-10-18T17:53:10.771Z,99.90
2022-10-18T17:55:37.794Z,99.90
2022-10-18T17:58:05.118Z,99.90
2022-10-18T18:00:32.177Z,99.90
2022-10-18T18:03:00.715Z,99.90
2022-10-18T18:05:32.372Z,99.90
2022-10-18T18:08:02.971Z,99.90
2022-10-18T18:10:33.554Z,99.90
2022-10-18T18:13:01.342Z,99.90
2022-10-18T18:15:28.423Z,99.90
2022-10-18T18:17:57.659Z,99.90
2022-10-18T18:20:26.152Z,99.90
2022-10-18T18:22:53.375Z,99.90
2022-10-18T18:25:20.354Z,99.90
2022-10-18T18:27:47.344Z,99.90
2022-10-18T18:30:15.468Z,99.90
2022-10-18T18:32:42.632Z,99.90
2022-10-18T18:35:09.618Z,99.90
2022-10-18T18:37:36.577Z,99.90
2022-10-18T18:40:04.043Z,99.90
2022-10-18T18:42:32.005Z,99.90
2022-10-18T18:44:59.229Z,99.90
2022-10-18T18:47:27.440Z,99.90
2022-10-18T18:49:54.500Z,99.90
2022-10-18T18:52:21.501Z,99.90
2022-10-18T18:54:48.456Z,99.90
2022-10-18T18:57:16.560Z,99.90
2022-10-18T18:59:43.498Z,99.90
2022-10-18T19:02:11.447Z,99.90
2022-10-18T19:04:39.379Z,99.90
2022-10-18T19:07:06.346Z,99.90
2022-10-18T19:09:33.388Z,99.90
2022-10-18T19:12:00.339Z,99.90
2022-10-18T19:14:29.022Z,99.90
2022-10-18T19:16:58.876Z,99.90
2022-10-18T19:19:27.687Z,99.90
2022-10-18T19:22:00.020Z,99.90
2022-10-18T19:24:30.187Z,99.90
2022-10-18T19:26:58.576Z,99.90
2022-10-18T19:29:32.328Z,99.90
2022-10-18T19:32:01.913Z,99.90
2022-10-18T19:34:30.804Z,99.90
2022-10-18T19:36:58.392Z,99.90
2022-10-18T19:39:27.755Z,99.90
2022-10-18T19:41:56.335Z,99.90
2022-10-18T19:44:24.544Z,99.90
2022-10-18T19:46:51.961Z,99.90
2022-10-18T19:49:19.177Z,99.90
2022-10-18T19:51:46.880Z,99.90
2022-10-18T19:54:14.951Z,99.90
2022-10-18T19:56:42.479Z,99.90
2022-10-18T19:59:11.259Z,99.90
2022-10-18T20:01:38.731Z,99.90
2022-10-18T20:04:07.371Z,99.90
2022-10-18T20:06:34.976Z,99.90
2022-10-18T20:09:01.933Z,99.90
2022-10-18T20:11:29.944Z,99.90
2022-10-18T20:13:57.453Z,99.90
2022-10-18T20:16:28.514Z,99.90
2022-10-18T20:19:00.978Z,99.90
2022-10-18T20:21:29.735Z,99.90
2022-10-18T20:23:57.401Z,99.90
2022-10-18T20:26:25.622Z,99.90
2022-10-18T20:28:57.920Z,99.90
2022-10-18T20:31:31.152Z,99.90
2022-10-18T20:34:00.584Z,99.90
2022-10-18T20:36:29.214Z,99.90
2022-10-18T20:38:56.559Z,99.90
2022-10-18T20:41:29.413Z,99.90
2022-10-18T20:44:01.714Z,99.90
2022-10-18T20:46:34.053Z,99.90
2022-10-18T20:49:01.152Z,99.90
2022-10-18T20:51:28.775Z,99.90
2022-10-18T20:53:56.192Z,99.90
2022-10-18T20:56:26.553Z,99.90
2022-10-18T20:58:56.052Z,99.90
2022-10-18T21:01:31.408Z,99.90
2022-10-18T21:04:01.511Z,99.90
2022-10-18T21:06:31.187Z,99.90
2022-10-18T21:09:00.275Z,99.90
2022-10-18T21:11:29.306Z,99.90
2022-10-18T21:14:02.750Z,99.90
2022-10-18T21:16:34.556Z,99.90
2022-10-18T21:19:13.211Z,99.90
2022-10-18T21:21:42.411Z,99.90
2022-10-18T21:24:09.900Z,99.90
2022-10-18T21:26:37.043Z,99.90
2022-10-18T21:29:05.534Z,99.90
2022-10-18T21:31:35.007Z,99.90
2022-10-18T21:34:06.577Z,99.90
2022-10-18T21:36:37.474Z,99.90
2022-10-18T21:39:06.172Z,99.90
2022-10-18T21:41:34.076Z,99.90
2022-10-18T21:44:03.530Z,99.90
2022-10-18T21:46:32.756Z,99.90
2022-10-18T21:48:59.706Z,99.90
2022-10-18T21:51:28.429Z,99.90
2022-10-18T21:53:57.531Z,99.90
2022-10-18T21:56:33.349Z,99.90
2022-10-18T21:59:00.977Z,99.90
2022-10-18T22:01:33.682Z,99.90
2022-10-18T22:04:03.677Z,99.90
2022-10-18T22:09:08.395Z,99.90
2022-10-18T22:11:42.221Z,99.90
2022-10-18T22:14:09.419Z,99.90
2022-10-18T22:16:36.395Z,99.90
2022-10-18T22:19:05.581Z,99.90
2022-10-18T22:21:33.370Z,99.90
2022-10-18T22:24:03.276Z,99.90
2022-10-18T22:26:33.727Z,99.90
2022-10-18T22:29:03.947Z,99.90
2022-10-18T22:31:33.799Z,99.90
2022-10-18T22:34:03.766Z,99.90
2022-10-18T22:36:31.779Z,99.90
2022-10-18T22:38:58.960Z,99.90
2022-10-18T22:41:26.223Z,99.90
2022-10-18T22:43:55.534Z,99.90
2022-10-18T22:46:24.578Z,99.90
2022-10-18T22:48:51.621Z,99.90
2022-10-18T22:51:19.024Z,99.90
2022-10-18T22:53:46.080Z,99.90
2022-10-18T22:56:18.070Z,99.90
2022-10-18T22:58:45.258Z,99.90
2022-10-18T23:01:15.486Z,99.90
2022-10-18T23:03:43.107Z,99.90
2022-10-18T23:06:19.350Z,99.90
2022-10-18T23:08:46.325Z,99.90
2022-10-18T23:11:13.437Z,99.90
2022-10-18T23:13:40.496Z,99.90
2022-10-18T23:16:07.583Z,99.90
2022-10-18T23:18:34.691Z,99.90
2022-10-18T23:21:07.624Z,99.90
2022-10-18T23:23:36.176Z,99.90
2022-10-18T23:26:09.120Z,99.90
2022-10-18T23:28:41.985Z,99.90
2022-10-18T23:31:18.451Z,99.90
2022-10-18T23:33:47.137Z,99.90
2022-10-18T23:36:14.966Z,99.90
2022-10-18T23:38:42.324Z,99.90
2022-10-18T23:41:11.090Z,99.90
2022-10-18T23:43:38.275Z,99.90
2022-10-18T23:46:05.747Z,99.90
2022-10-18T23:48:32.909Z,99.90
2022-10-18T23:51:00.480Z,99.90
2022-10-18T23:53:27.748Z,99.90
2022-10-18T23:55:57.043Z,99.90
2022-10-18T23:58:24.654Z,99.90
